sensor_id;sensor_type;location;lat;lon;timestamp;P1;durP1;ratioP1;P2;durP2;ratioP2
42518;SDS011;28147;47.520;18.920;2022-12-07T00:01:40;8.65;;;5.03;;
42518;SDS011;28147;47.520;18.920;2022-12-07T00:04:08;9.85;;;5.20;;
42518;SDS011;28147;47.520;18.920;2022-12-07T00:06:37;9.23;;;5.13;;
42518;SDS011;28147;47.520;18.920;2022-12-07T00:16:21;13.52;;;4.72;;
42518;SDS011;28147;47.520;18.920;2022-12-07T00:18:48;7.95;;;4.60;;
42518;SDS011;28147;47.520;18.920;2022-12-07T00:21:14;7.22;;;4.07;;
42518;SDS011;28147;47.520;18.920;2022-12-07T00:26:28;7.95;;;4.20;;
42518;SDS011;28147;47.520;18.920;2022-12-07T00:30:59;8.00;;;4.07;;
42518;SDS011;28147;47.520;18.920;2022-12-07T00:35:17;7.80;;;3.90;;
42518;SDS011;28147;47.520;18.920;2022-12-07T00:40:27;6.25;;;3.53;;
42518;SDS011;28147;47.520;18.920;2022-12-07T00:42:52;7.53;;;4.05;;
42518;SDS011;28147;47.520;18.920;2022-12-07T00:45:17;7.55;;;4.43;;
42518;SDS011;28147;47.520;18.920;2022-12-07T00:48:23;9.40;;;4.20;;
42518;SDS011;28147;47.520;18.920;2022-12-07T00:50:49;7.22;;;4.35;;
42518;SDS011;28147;47.520;18.920;2022-12-07T00:53:15;8.05;;;3.88;;
42518;SDS011;28147;47.520;18.920;2022-12-07T00:55:41;6.93;;;3.75;;
42518;SDS011;28147;47.520;18.920;2022-12-07T00:58:07;5.65;;;3.38;;
42518;SDS011;28147;47.520;18.920;2022-12-07T01:00:33;7.28;;;3.85;;
42518;SDS011;28147;47.520;18.920;2022-12-07T01:03:00;7.28;;;3.88;;
42518;SDS011;28147;47.520;18.920;2022-12-07T01:05:26;6.03;;;3.80;;
42518;SDS011;28147;47.520;18.920;2022-12-07T01:07:51;7.25;;;3.95;;
42518;SDS011;28147;47.520;18.920;2022-12-07T01:10:17;5.82;;;3.30;;
42518;SDS011;28147;47.520;18.920;2022-12-07T01:12:42;7.05;;;3.63;;
42518;SDS011;28147;47.520;18.920;2022-12-07T01:15:08;6.38;;;4.07;;
42518;SDS011;28147;47.520;18.920;2022-12-07T01:17:34;7.85;;;3.50;;
42518;SDS011;28147;47.520;18.920;2022-12-07T01:19:59;8.00;;;3.17;;
42518;SDS011;28147;47.520;18.920;2022-12-07T01:22:25;8.30;;;3.40;;
42518;SDS011;28147;47.520;18.920;2022-12-07T01:24:50;6.13;;;3.03;;
42518;SDS011;28147;47.520;18.920;2022-12-07T01:27:15;6.07;;;3.30;;
42518;SDS011;28147;47.520;18.920;2022-12-07T01:33:29;5.22;;;2.88;;
42518;SDS011;28147;47.520;18.920;2022-12-07T01:38:33;7.00;;;3.67;;
42518;SDS011;28147;47.520;18.920;2022-12-07T01:40:59;6.80;;;3.90;;
42518;SDS011;28147;47.520;18.920;2022-12-07T01:43:27;7.18;;;3.72;;
42518;SDS011;28147;47.520;18.920;2022-12-07T01:45:54;9.68;;;3.50;;
42518;SDS011;28147;47.520;18.920;2022-12-07T01:48:22;6.65;;;3.53;;
42518;SDS011;28147;47.520;18.920;2022-12-07T01:50:51;5.05;;;2.85;;
42518;SDS011;28147;47.520;18.920;2022-12-07T01:53:21;5.82;;;3.22;;
42518;SDS011;28147;47.520;18.920;2022-12-07T01:59:16;7.63;;;3.75;;
42518;SDS011;28147;47.520;18.920;2022-12-07T02:01:44;8.02;;;3.00;;
42518;SDS011;28147;47.520;18.920;2022-12-07T02:04:10;6.88;;;3.55;;
42518;SDS011;28147;47.520;18.920;2022-12-07T02:06:37;5.97;;;3.00;;
42518;SDS011;28147;47.520;18.920;2022-12-07T02:09:03;6.15;;;3.38;;
42518;SDS011;28147;47.520;18.920;2022-12-07T02:12:36;6.13;;;2.83;;
42518;SDS011;28147;47.520;18.920;2022-12-07T02:15:01;7.07;;;3.28;;
42518;SDS011;28147;47.520;18.920;2022-12-07T02:29:27;6.35;;;3.30;;
42518;SDS011;28147;47.520;18.920;2022-12-07T02:37:18;6.05;;;3.15;;
42518;SDS011;28147;47.520;18.920;2022-12-07T02:39:51;6.57;;;3.75;;
42518;SDS011;28147;47.520;18.920;2022-12-07T02:42:23;6.32;;;3.53;;
42518;SDS011;28147;47.520;18.920;2022-12-07T02:44:55;5.88;;;3.42;;
42518;SDS011;28147;47.520;18.920;2022-12-07T02:47:21;8.10;;;3.80;;
42518;SDS011;28147;47.520;18.920;2022-12-07T02:49:48;6.55;;;3.47;;
42518;SDS011;28147;47.520;18.920;2022-12-07T02:52:58;6.10;;;3.45;;
42518;SDS011;28147;47.520;18.920;2022-12-07T02:57:04;5.25;;;3.03;;
42518;SDS011;28147;47.520;18.920;2022-12-07T03:15:30;6.63;;;4.07;;
42518;SDS011;28147;47.520;18.920;2022-12-07T03:17:59;7.00;;;3.38;;
42518;SDS011;28147;47.520;18.920;2022-12-07T03:20:38;5.88;;;3.40;;
42518;SDS011;28147;47.520;18.920;2022-12-07T03:23:05;4.72;;;2.88;;
42518;SDS011;28147;47.520;18.920;2022-12-07T03:25:35;6.25;;;3.03;;
42518;SDS011;28147;47.520;18.920;2022-12-07T03:38:00;7.47;;;3.80;;
42518;SDS011;28147;47.520;18.920;2022-12-07T03:43:16;6.55;;;3.47;;
42518;SDS011;28147;47.520;18.920;2022-12-07T03:45:44;6.13;;;3.63;;
42518;SDS011;28147;47.520;18.920;2022-12-07T03:54:36;6.30;;;3.30;;
42518;SDS011;28147;47.520;18.920;2022-12-07T03:57:07;6.88;;;3.85;;
42518;SDS011;28147;47.520;18.920;2022-12-07T03:59:34;5.35;;;3.50;;
42518;SDS011;28147;47.520;18.920;2022-12-07T04:05:19;6.22;;;3.67;;
42518;SDS011;28147;47.520;18.920;2022-12-07T04:07:45;6.57;;;3.33;;
42518;SDS011;28147;47.520;18.920;2022-12-07T04:10:10;6.88;;;3.80;;
42518;SDS011;28147;47.520;18.920;2022-12-07T04:12:36;5.85;;;3.38;;
42518;SDS011;28147;47.520;18.920;2022-12-07T04:15:02;4.97;;;3.28;;
42518;SDS011;28147;47.520;18.920;2022-12-07T04:17:28;6.13;;;3.20;;
42518;SDS011;28147;47.520;18.920;2022-12-07T04:19:54;7.70;;;3.35;;
42518;SDS011;28147;47.520;18.920;2022-12-07T04:22:19;5.03;;;3.15;;
42518;SDS011;28147;47.520;18.920;2022-12-07T04:24:45;5.43;;;3.67;;
42518;SDS011;28147;47.520;18.920;2022-12-07T04:27:10;8.52;;;3.30;;
42518;SDS011;28147;47.520;18.920;2022-12-07T04:29:36;7.35;;;3.08;;
42518;SDS011;28147;47.520;18.920;2022-12-07T04:32:09;6.65;;;3.42;;
42518;SDS011;28147;47.520;18.920;2022-12-07T04:34:35;8.18;;;4.10;;
42518;SDS011;28147;47.520;18.920;2022-12-07T04:37:00;6.93;;;3.80;;
42518;SDS011;28147;47.520;18.920;2022-12-07T04:41:59;7.20;;;4.75;;
42518;SDS011;28147;47.520;18.920;2022-12-07T04:44:26;7.30;;;4.28;;
42518;SDS011;28147;47.520;18.920;2022-12-07T04:46:53;7.53;;;4.30;;
42518;SDS011;28147;47.520;18.920;2022-12-07T04:49:19;6.72;;;3.97;;
42518;SDS011;28147;47.520;18.920;2022-12-07T04:51:45;10.30;;;4.90;;
42518;SDS011;28147;47.520;18.920;2022-12-07T04:54:11;9.82;;;4.40;;
42518;SDS011;28147;47.520;18.920;2022-12-07T04:56:38;7.25;;;4.22;;
42518;SDS011;28147;47.520;18.920;2022-12-07T04:59:04;6.88;;;3.40;;
42518;SDS011;28147;47.520;18.920;2022-12-07T05:01:30;7.20;;;3.75;;
42518;SDS011;28147;47.520;18.920;2022-12-07T05:03:56;6.32;;;4.28;;
42518;SDS011;28147;47.520;18.920;2022-12-07T05:06:21;10.32;;;4.13;;
42518;SDS011;28147;47.520;18.920;2022-12-07T05:08:47;7.22;;;4.13;;
42518;SDS011;28147;47.520;18.920;2022-12-07T05:11:13;8.85;;;3.78;;
42518;SDS011;28147;47.520;18.920;2022-12-07T05:13:59;6.45;;;4.45;;
42518;SDS011;28147;47.520;18.920;2022-12-07T05:16:25;9.20;;;4.45;;
42518;SDS011;28147;47.520;18.920;2022-12-07T05:18:50;8.95;;;4.45;;
42518;SDS011;28147;47.520;18.920;2022-12-07T05:23:07;9.55;;;5.43;;
42518;SDS011;28147;47.520;18.920;2022-12-07T05:25:32;9.75;;;5.28;;
42518;SDS011;28147;47.520;18.920;2022-12-07T05:27:58;8.68;;;4.85;;
42518;SDS011;28147;47.520;18.920;2022-12-07T05:30:23;7.50;;;4.97;;
42518;SDS011;28147;47.520;18.920;2022-12-07T05:32:50;9.70;;;5.53;;
42518;SDS011;28147;47.520;18.920;2022-12-07T05:35:15;8.23;;;5.10;;
42518;SDS011;28147;47.520;18.920;2022-12-07T05:37:41;9.57;;;5.13;;
42518;SDS011;28147;47.520;18.920;2022-12-07T05:40:07;11.60;;;5.18;;
42518;SDS011;28147;47.520;18.920;2022-12-07T05:42:33;6.35;;;4.38;;
42518;SDS011;28147;47.520;18.920;2022-12-07T05:44:59;9.73;;;4.70;;
42518;SDS011;28147;47.520;18.920;2022-12-07T05:47:24;6.55;;;3.97;;
42518;SDS011;28147;47.520;18.920;2022-12-07T05:49:50;7.63;;;4.50;;
42518;SDS011;28147;47.520;18.920;2022-12-07T05:52:15;8.05;;;4.53;;
42518;SDS011;28147;47.520;18.920;2022-12-07T05:54:40;6.28;;;4.18;;
42518;SDS011;28147;47.520;18.920;2022-12-07T05:57:06;8.23;;;4.35;;
42518;SDS011;28147;47.520;18.920;2022-12-07T05:59:31;10.15;;;5.30;;
42518;SDS011;28147;47.520;18.920;2022-12-07T06:01:58;8.63;;;4.25;;
42518;SDS011;28147;47.520;18.920;2022-12-07T06:04:33;7.55;;;4.50;;
42518;SDS011;28147;47.520;18.920;2022-12-07T06:07:04;8.02;;;3.63;;
42518;SDS011;28147;47.520;18.920;2022-12-07T06:09:30;7.45;;;4.43;;
42518;SDS011;28147;47.520;18.920;2022-12-07T06:11:56;6.32;;;3.95;;
42518;SDS011;28147;47.520;18.920;2022-12-07T06:14:28;7.15;;;3.92;;
42518;SDS011;28147;47.520;18.920;2022-12-07T06:16:53;6.80;;;3.85;;
42518;SDS011;28147;47.520;18.920;2022-12-07T06:19:18;6.35;;;3.65;;
42518;SDS011;28147;47.520;18.920;2022-12-07T06:21:51;8.18;;;4.03;;
42518;SDS011;28147;47.520;18.920;2022-12-07T06:24:18;8.45;;;4.78;;
42518;SDS011;28147;47.520;18.920;2022-12-07T06:26:44;9.38;;;4.95;;
42518;SDS011;28147;47.520;18.920;2022-12-07T06:29:10;9.02;;;5.03;;
42518;SDS011;28147;47.520;18.920;2022-12-07T06:31:36;6.53;;;3.80;;
42518;SDS011;28147;47.520;18.920;2022-12-07T06:34:03;5.80;;;3.97;;
42518;SDS011;28147;47.520;18.920;2022-12-07T06:36:30;9.40;;;3.97;;
42518;SDS011;28147;47.520;18.920;2022-12-07T06:41:02;7.70;;;4.35;;
42518;SDS011;28147;47.520;18.920;2022-12-07T06:43:27;7.15;;;3.88;;
42518;SDS011;28147;47.520;18.920;2022-12-07T06:46:01;7.25;;;4.00;;
42518;SDS011;28147;47.520;18.920;2022-12-07T06:48:27;6.57;;;4.10;;
42518;SDS011;28147;47.520;18.920;2022-12-07T06:50:52;7.85;;;4.78;;
42518;SDS011;28147;47.520;18.920;2022-12-07T06:53:18;7.20;;;4.53;;
42518;SDS011;28147;47.520;18.920;2022-12-07T06:55:45;9.82;;;5.22;;
42518;SDS011;28147;47.520;18.920;2022-12-07T06:58:10;9.00;;;5.07;;
42518;SDS011;28147;47.520;18.920;2022-12-07T07:00:35;9.55;;;5.25;;
42518;SDS011;28147;47.520;18.920;2022-12-07T07:03:01;9.85;;;5.05;;
42518;SDS011;28147;47.520;18.920;2022-12-07T07:05:26;9.57;;;5.32;;
42518;SDS011;28147;47.520;18.920;2022-12-07T07:07:52;9.27;;;5.47;;
42518;SDS011;28147;47.520;18.920;2022-12-07T07:10:17;11.15;;;5.97;;
42518;SDS011;28147;47.520;18.920;2022-12-07T07:12:43;8.07;;;5.05;;
42518;SDS011;28147;47.520;18.920;2022-12-07T07:15:08;9.27;;;5.03;;
42518;SDS011;28147;47.520;18.920;2022-12-07T07:17:34;7.68;;;5.00;;
42518;SDS011;28147;47.520;18.920;2022-12-07T07:20:00;10.65;;;5.43;;
42518;SDS011;28147;47.520;18.920;2022-12-07T07:22:25;10.40;;;5.22;;
42518;SDS011;28147;47.520;18.920;2022-12-07T07:24:50;11.45;;;5.85;;
42518;SDS011;28147;47.520;18.920;2022-12-07T07:27:16;9.30;;;5.30;;
42518;SDS011;28147;47.520;18.920;2022-12-07T07:29:41;7.28;;;4.70;;
42518;SDS011;28147;47.520;18.920;2022-12-07T07:32:07;10.27;;;5.82;;
42518;SDS011;28147;47.520;18.920;2022-12-07T07:34:32;9.90;;;4.60;;
42518;SDS011;28147;47.520;18.920;2022-12-07T07:36:58;11.13;;;5.03;;
42518;SDS011;28147;47.520;18.920;2022-12-07T07:39:24;9.43;;;5.25;;
42518;SDS011;28147;47.520;18.920;2022-12-07T07:41:49;9.10;;;5.13;;
42518;SDS011;28147;47.520;18.920;2022-12-07T07:44:23;14.57;;;6.75;;
42518;SDS011;28147;47.520;18.920;2022-12-07T07:46:49;12.52;;;6.95;;
42518;SDS011;28147;47.520;18.920;2022-12-07T07:49:14;11.18;;;7.22;;
42518;SDS011;28147;47.520;18.920;2022-12-07T07:51:39;15.73;;;8.27;;
42518;SDS011;28147;47.520;18.920;2022-12-07T07:54:05;16.15;;;8.63;;
42518;SDS011;28147;47.520;18.920;2022-12-07T07:56:30;17.48;;;9.48;;
42518;SDS011;28147;47.520;18.920;2022-12-07T07:58:56;18.85;;;9.45;;
42518;SDS011;28147;47.520;18.920;2022-12-07T08:01:21;17.05;;;9.57;;
42518;SDS011;28147;47.520;18.920;2022-12-07T08:03:47;19.00;;;9.40;;
42518;SDS011;28147;47.520;18.920;2022-12-07T08:06:13;15.68;;;8.82;;
42518;SDS011;28147;47.520;18.920;2022-12-07T08:08:38;17.17;;;8.77;;
42518;SDS011;28147;47.520;18.920;2022-12-07T08:11:07;18.30;;;9.30;;
42518;SDS011;28147;47.520;18.920;2022-12-07T08:13:34;20.63;;;10.95;;
42518;SDS011;28147;47.520;18.920;2022-12-07T08:16:03;18.02;;;11.65;;
42518;SDS011;28147;47.520;18.920;2022-12-07T08:18:30;18.20;;;9.68;;
42518;SDS011;28147;47.520;18.920;2022-12-07T08:23:33;16.42;;;10.30;;
42518;SDS011;28147;47.520;18.920;2022-12-07T08:26:02;19.88;;;10.50;;
42518;SDS011;28147;47.520;18.920;2022-12-07T08:28:38;19.40;;;9.90;;
42518;SDS011;28147;47.520;18.920;2022-12-07T08:31:07;15.57;;;9.48;;
42518;SDS011;28147;47.520;18.920;2022-12-07T08:33:35;15.13;;;8.45;;
42518;SDS011;28147;47.520;18.920;2022-12-07T08:36:02;12.10;;;6.97;;
42518;SDS011;28147;47.520;18.920;2022-12-07T08:38:29;16.42;;;8.18;;
42518;SDS011;28147;47.520;18.920;2022-12-07T08:40:54;16.80;;;8.65;;
42518;SDS011;28147;47.520;18.920;2022-12-07T08:43:20;13.32;;;8.20;;
42518;SDS011;28147;47.520;18.920;2022-12-07T08:45:47;10.98;;;7.35;;
42518;SDS011;28147;47.520;18.920;2022-12-07T08:48:19;11.80;;;6.88;;
42518;SDS011;28147;47.520;18.920;2022-12-07T08:50:47;13.60;;;8.13;;
42518;SDS011;28147;47.520;18.920;2022-12-07T08:53:13;13.65;;;8.02;;
42518;SDS011;28147;47.520;18.920;2022-12-07T08:55:39;12.63;;;7.53;;
42518;SDS011;28147;47.520;18.920;2022-12-07T08:58:04;12.65;;;7.35;;
42518;SDS011;28147;47.520;18.920;2022-12-07T09:00:30;14.75;;;7.72;;
42518;SDS011;28147;47.520;18.920;2022-12-07T09:02:55;11.75;;;7.00;;
42518;SDS011;28147;47.520;18.920;2022-12-07T09:05:20;12.90;;;7.55;;
42518;SDS011;28147;47.520;18.920;2022-12-07T09:07:47;13.13;;;7.85;;
42518;SDS011;28147;47.520;18.920;2022-12-07T09:10:16;11.07;;;6.40;;
42518;SDS011;28147;47.520;18.920;2022-12-07T09:12:42;11.90;;;7.25;;
42518;SDS011;28147;47.520;18.920;2022-12-07T09:15:08;11.43;;;6.40;;
42518;SDS011;28147;47.520;18.920;2022-12-07T09:17:33;15.07;;;9.18;;
42518;SDS011;28147;47.520;18.920;2022-12-07T09:20:00;14.00;;;8.95;;
42518;SDS011;28147;47.520;18.920;2022-12-07T09:22:29;11.15;;;7.05;;
42518;SDS011;28147;47.520;18.920;2022-12-07T09:24:56;14.65;;;6.97;;
42518;SDS011;28147;47.520;18.920;2022-12-07T09:27:24;13.15;;;6.93;;
42518;SDS011;28147;47.520;18.920;2022-12-07T09:29:50;11.95;;;7.55;;
42518;SDS011;28147;47.520;18.920;2022-12-07T09:32:15;12.13;;;7.03;;
42518;SDS011;28147;47.520;18.920;2022-12-07T09:34:41;12.95;;;7.00;;
42518;SDS011;28147;47.520;18.920;2022-12-07T09:37:06;11.85;;;7.70;;
42518;SDS011;28147;47.520;18.920;2022-12-07T09:39:32;10.68;;;6.80;;
42518;SDS011;28147;47.520;18.920;2022-12-07T09:41:58;9.00;;;5.80;;
42518;SDS011;28147;47.520;18.920;2022-12-07T09:44:27;9.07;;;5.28;;
42518;SDS011;28147;47.520;18.920;2022-12-07T09:46:53;8.45;;;5.50;;
42518;SDS011;28147;47.520;18.920;2022-12-07T09:49:21;8.60;;;4.93;;
42518;SDS011;28147;47.520;18.920;2022-12-07T09:51:55;7.63;;;4.57;;
42518;SDS011;28147;47.520;18.920;2022-12-07T09:54:27;6.65;;;3.70;;
42518;SDS011;28147;47.520;18.920;2022-12-07T09:56:54;7.15;;;3.63;;
42518;SDS011;28147;47.520;18.920;2022-12-07T09:59:19;6.32;;;3.80;;
42518;SDS011;28147;47.520;18.920;2022-12-07T10:01:48;8.00;;;3.88;;
42518;SDS011;28147;47.520;18.920;2022-12-07T10:06:43;6.60;;;3.70;;
42518;SDS011;28147;47.520;18.920;2022-12-07T10:09:13;7.72;;;4.28;;
42518;SDS011;28147;47.520;18.920;2022-12-07T10:14:29;8.23;;;4.63;;
42518;SDS011;28147;47.520;18.920;2022-12-07T10:16:56;9.95;;;5.47;;
42518;SDS011;28147;47.520;18.920;2022-12-07T10:22:02;9.48;;;4.65;;
42518;SDS011;28147;47.520;18.920;2022-12-07T10:24:39;7.80;;;4.55;;
42518;SDS011;28147;47.520;18.920;2022-12-07T10:27:56;8.90;;;5.13;;
42518;SDS011;28147;47.520;18.920;2022-12-07T10:29:56;5.82;;;3.30;;
42518;SDS011;28147;47.520;18.920;2022-12-07T10:32:32;6.43;;;4.25;;
42518;SDS011;28147;47.520;18.920;2022-12-07T10:37:56;9.25;;;4.50;;
42518;SDS011;28147;47.520;18.920;2022-12-07T10:48:23;8.30;;;4.45;;
42518;SDS011;28147;47.520;18.920;2022-12-07T10:56:59;6.60;;;3.92;;
42518;SDS011;28147;47.520;18.920;2022-12-07T11:07:29;11.38;;;6.13;;
42518;SDS011;28147;47.520;18.920;2022-12-07T11:10:31;7.97;;;4.72;;
42518;SDS011;28147;47.520;18.920;2022-12-07T11:13:10;9.23;;;4.75;;
42518;SDS011;28147;47.520;18.920;2022-12-07T11:15:51;9.77;;;4.38;;
42518;SDS011;28147;47.520;18.920;2022-12-07T11:18:29;8.60;;;4.82;;
42518;SDS011;28147;47.520;18.920;2022-12-07T11:32:02;8.80;;;4.85;;
42518;SDS011;28147;47.520;18.920;2022-12-07T11:40:45;8.43;;;4.95;;
42518;SDS011;28147;47.520;18.920;2022-12-07T11:48:35;10.20;;;5.28;;
42518;SDS011;28147;47.520;18.920;2022-12-07T11:51:06;16.20;;;9.38;;
42518;SDS011;28147;47.520;18.920;2022-12-07T11:53:36;10.25;;;5.20;;
42518;SDS011;28147;47.520;18.920;2022-12-07T11:56:19;7.80;;;4.70;;
42518;SDS011;28147;47.520;18.920;2022-12-07T12:03:40;6.63;;;4.00;;
42518;SDS011;28147;47.520;18.920;2022-12-07T12:06:14;6.75;;;4.05;;
42518;SDS011;28147;47.520;18.920;2022-12-07T12:08:48;9.35;;;4.30;;
42518;SDS011;28147;47.520;18.920;2022-12-07T12:14:11;7.70;;;4.22;;
42518;SDS011;28147;47.520;18.920;2022-12-07T12:22:20;7.90;;;3.83;;
42518;SDS011;28147;47.520;18.920;2022-12-07T12:24:52;6.57;;;3.90;;
42518;SDS011;28147;47.520;18.920;2022-12-07T12:29:59;6.93;;;3.83;;
42518;SDS011;28147;47.520;18.920;2022-12-07T12:32:38;7.65;;;4.47;;
42518;SDS011;28147;47.520;18.920;2022-12-07T12:37:48;5.80;;;3.17;;
42518;SDS011;28147;47.520;18.920;2022-12-07T12:42:46;4.72;;;3.10;;
42518;SDS011;28147;47.520;18.920;2022-12-07T12:45:31;7.57;;;4.05;;
42518;SDS011;28147;47.520;18.920;2022-12-07T12:48:01;8.45;;;3.97;;
42518;SDS011;28147;47.520;18.920;2022-12-07T12:50:49;7.18;;;3.97;;
42518;SDS011;28147;47.520;18.920;2022-12-07T12:53:52;8.95;;;4.60;;
42518;SDS011;28147;47.520;18.920;2022-12-07T12:56:40;9.07;;;4.35;;
42518;SDS011;28147;47.520;18.920;2022-12-07T13:01:47;7.22;;;4.20;;
42518;SDS011;28147;47.520;18.920;2022-12-07T13:04:16;7.88;;;4.05;;
42518;SDS011;28147;47.520;18.920;2022-12-07T13:06:51;6.18;;;3.63;;
42518;SDS011;28147;47.520;18.920;2022-12-07T13:09:20;6.35;;;3.35;;
42518;SDS011;28147;47.520;18.920;2022-12-07T13:11:59;7.05;;;4.10;;
42518;SDS011;28147;47.520;18.920;2022-12-07T13:20:02;9.73;;;4.55;;
42518;SDS011;28147;47.520;18.920;2022-12-07T13:27:39;7.78;;;3.97;;
42518;SDS011;28147;47.520;18.920;2022-12-07T13:30:18;7.13;;;3.80;;
42518;SDS011;28147;47.520;18.920;2022-12-07T13:32:55;6.25;;;3.83;;
42518;SDS011;28147;47.520;18.920;2022-12-07T13:35:29;6.45;;;3.90;;
42518;SDS011;28147;47.520;18.920;2022-12-07T13:37:57;10.32;;;5.20;;
42518;SDS011;28147;47.520;18.920;2022-12-07T13:40:25;7.85;;;3.90;;
42518;SDS011;28147;47.520;18.920;2022-12-07T13:42:58;8.23;;;4.45;;
42518;SDS011;28147;47.520;18.920;2022-12-07T13:45:29;6.95;;;4.07;;
42518;SDS011;28147;47.520;18.920;2022-12-07T13:48:28;10.70;;;5.10;;
42518;SDS011;28147;47.520;18.920;2022-12-07T13:50:57;7.95;;;4.53;;
42518;SDS011;28147;47.520;18.920;2022-12-07T13:53:24;7.93;;;4.68;;
42518;SDS011;28147;47.520;18.920;2022-12-07T13:55:55;5.63;;;3.38;;
42518;SDS011;28147;47.520;18.920;2022-12-07T13:58:25;9.23;;;5.10;;
42518;SDS011;28147;47.520;18.920;2022-12-07T14:00:52;9.30;;;5.43;;
42518;SDS011;28147;47.520;18.920;2022-12-07T14:05:43;7.93;;;4.53;;
42518;SDS011;28147;47.520;18.920;2022-12-07T14:13:35;9.98;;;4.72;;
42518;SDS011;28147;47.520;18.920;2022-12-07T14:16:23;8.20;;;4.47;;
42518;SDS011;28147;47.520;18.920;2022-12-07T14:18:53;7.80;;;3.88;;
42518;SDS011;28147;47.520;18.920;2022-12-07T14:24:47;6.55;;;4.13;;
42518;SDS011;28147;47.520;18.920;2022-12-07T14:27:19;10.88;;;4.93;;
42518;SDS011;28147;47.520;18.920;2022-12-07T14:29:47;7.15;;;4.13;;
42518;SDS011;28147;47.520;18.920;2022-12-07T14:32:20;9.00;;;4.55;;
42518;SDS011;28147;47.520;18.920;2022-12-07T14:34:57;8.25;;;4.30;;
42518;SDS011;28147;47.520;18.920;2022-12-07T14:37:49;7.22;;;4.18;;
42518;SDS011;28147;47.520;18.920;2022-12-07T14:40:25;7.00;;;4.07;;
42518;SDS011;28147;47.520;18.920;2022-12-07T14:43:05;8.75;;;5.28;;
42518;SDS011;28147;47.520;18.920;2022-12-07T14:45:36;7.18;;;3.95;;
42518;SDS011;28147;47.520;18.920;2022-12-07T14:48:01;8.70;;;4.22;;
42518;SDS011;28147;47.520;18.920;2022-12-07T14:50:27;9.65;;;4.13;;
42518;SDS011;28147;47.520;18.920;2022-12-07T14:52:56;7.03;;;4.10;;
42518;SDS011;28147;47.520;18.920;2022-12-07T14:55:29;7.93;;;4.35;;
42518;SDS011;28147;47.520;18.920;2022-12-07T14:57:56;8.07;;;4.07;;
42518;SDS011;28147;47.520;18.920;2022-12-07T15:00:24;9.93;;;5.05;;
42518;SDS011;28147;47.520;18.920;2022-12-07T15:04:36;9.88;;;5.10;;
42518;SDS011;28147;47.520;18.920;2022-12-07T15:07:02;10.40;;;4.70;;
42518;SDS011;28147;47.520;18.920;2022-12-07T15:09:30;9.80;;;5.45;;
42518;SDS011;28147;47.520;18.920;2022-12-07T15:11:56;11.27;;;5.80;;
42518;SDS011;28147;47.520;18.920;2022-12-07T15:14:21;8.90;;;4.95;;
42518;SDS011;28147;47.520;18.920;2022-12-07T15:16:46;8.52;;;4.30;;
42518;SDS011;28147;47.520;18.920;2022-12-07T15:19:19;8.15;;;4.20;;
42518;SDS011;28147;47.520;18.920;2022-12-07T15:21:56;9.85;;;4.90;;
42518;SDS011;28147;47.520;18.920;2022-12-07T15:24:23;8.65;;;4.18;;
42518;SDS011;28147;47.520;18.920;2022-12-07T15:26:49;8.18;;;4.18;;
42518;SDS011;28147;47.520;18.920;2022-12-07T15:29:14;6.93;;;3.58;;
42518;SDS011;28147;47.520;18.920;2022-12-07T15:31:40;7.40;;;4.05;;
42518;SDS011;28147;47.520;18.920;2022-12-07T15:34:06;8.02;;;4.05;;
42518;SDS011;28147;47.520;18.920;2022-12-07T15:36:32;8.88;;;4.53;;
42518;SDS011;28147;47.520;18.920;2022-12-07T15:38:58;8.63;;;3.60;;
42518;SDS011;28147;47.520;18.920;2022-12-07T15:41:24;9.13;;;4.38;;
42518;SDS011;28147;47.520;18.920;2022-12-07T15:43:50;7.70;;;3.72;;
42518;SDS011;28147;47.520;18.920;2022-12-07T15:49:00;7.53;;;3.70;;
42518;SDS011;28147;47.520;18.920;2022-12-07T15:51:26;7.45;;;4.05;;
42518;SDS011;28147;47.520;18.920;2022-12-07T15:53:52;6.45;;;3.38;;
42518;SDS011;28147;47.520;18.920;2022-12-07T15:56:18;6.55;;;3.60;;
42518;SDS011;28147;47.520;18.920;2022-12-07T15:58:44;7.30;;;3.97;;
42518;SDS011;28147;47.520;18.920;2022-12-07T16:01:13;6.93;;;3.65;;
42518;SDS011;28147;47.520;18.920;2022-12-07T16:03:40;6.95;;;3.58;;
42518;SDS011;28147;47.520;18.920;2022-12-07T16:06:05;7.15;;;3.63;;
42518;SDS011;28147;47.520;18.920;2022-12-07T16:10:03;5.20;;;3.20;;
42518;SDS011;28147;47.520;18.920;2022-12-07T16:12:32;4.95;;;3.42;;
42518;SDS011;28147;47.520;18.920;2022-12-07T16:14:57;8.75;;;3.67;;
42518;SDS011;28147;47.520;18.920;2022-12-07T16:17:22;7.13;;;3.75;;
42518;SDS011;28147;47.520;18.920;2022-12-07T16:19:48;7.85;;;4.25;;
42518;SDS011;28147;47.520;18.920;2022-12-07T16:22:13;6.82;;;3.45;;
42518;SDS011;28147;47.520;18.920;2022-12-07T16:26:27;8.27;;;3.55;;
42518;SDS011;28147;47.520;18.920;2022-12-07T16:29:13;7.10;;;4.05;;
42518;SDS011;28147;47.520;18.920;2022-12-07T16:31:39;6.88;;;3.50;;
42518;SDS011;28147;47.520;18.920;2022-12-07T16:34:04;10.98;;;6.05;;
42518;SDS011;28147;47.520;18.920;2022-12-07T16:36:30;15.55;;;6.80;;
42518;SDS011;28147;47.520;18.920;2022-12-07T16:38:57;15.18;;;7.20;;
42518;SDS011;28147;47.520;18.920;2022-12-07T16:41:23;11.02;;;6.32;;
42518;SDS011;28147;47.520;18.920;2022-12-07T16:43:48;16.83;;;8.88;;
42518;SDS011;28147;47.520;18.920;2022-12-07T16:46:14;20.80;;;10.60;;
42518;SDS011;28147;47.520;18.920;2022-12-07T16:48:40;17.65;;;9.70;;
42518;SDS011;28147;47.520;18.920;2022-12-07T16:51:06;17.02;;;9.65;;
42518;SDS011;28147;47.520;18.920;2022-12-07T16:56:02;18.75;;;9.13;;
42518;SDS011;28147;47.520;18.920;2022-12-07T16:58:28;14.63;;;8.90;;
42518;SDS011;28147;47.520;18.920;2022-12-07T17:00:54;16.40;;;8.80;;
42518;SDS011;28147;47.520;18.920;2022-12-07T17:03:19;12.50;;;7.50;;
42518;SDS011;28147;47.520;18.920;2022-12-07T17:05:45;16.65;;;8.20;;
42518;SDS011;28147;47.520;18.920;2022-12-07T17:08:11;15.50;;;7.55;;
42518;SDS011;28147;47.520;18.920;2022-12-07T17:10:38;15.13;;;8.10;;
42518;SDS011;28147;47.520;18.920;2022-12-07T17:13:06;15.23;;;8.27;;
42518;SDS011;28147;47.520;18.920;2022-12-07T17:15:40;15.27;;;9.10;;
42518;SDS011;28147;47.520;18.920;2022-12-07T17:18:06;15.68;;;8.32;;
42518;SDS011;28147;47.520;18.920;2022-12-07T17:20:31;16.33;;;8.30;;
42518;SDS011;28147;47.520;18.920;2022-12-07T17:22:57;13.77;;;7.65;;
42518;SDS011;28147;47.520;18.920;2022-12-07T17:25:23;18.98;;;7.57;;
42518;SDS011;28147;47.520;18.920;2022-12-07T17:27:48;12.57;;;7.10;;
42518;SDS011;28147;47.520;18.920;2022-12-07T17:30:14;10.88;;;6.78;;
42518;SDS011;28147;47.520;18.920;2022-12-07T17:32:39;11.20;;;6.38;;
42518;SDS011;28147;47.520;18.920;2022-12-07T17:35:05;17.88;;;6.47;;
42518;SDS011;28147;47.520;18.920;2022-12-07T17:37:31;14.73;;;7.13;;
42518;SDS011;28147;47.520;18.920;2022-12-07T17:39:57;11.45;;;5.30;;
42518;SDS011;28147;47.520;18.920;2022-12-07T17:42:25;13.18;;;6.38;;
42518;SDS011;28147;47.520;18.920;2022-12-07T17:45:00;10.63;;;5.55;;
42518;SDS011;28147;47.520;18.920;2022-12-07T17:47:27;11.57;;;5.72;;
42518;SDS011;28147;47.520;18.920;2022-12-07T17:49:52;12.10;;;5.47;;
42518;SDS011;28147;47.520;18.920;2022-12-07T17:52:18;9.77;;;5.45;;
42518;SDS011;28147;47.520;18.920;2022-12-07T17:55:01;9.18;;;4.47;;
42518;SDS011;28147;47.520;18.920;2022-12-07T17:57:27;8.73;;;4.13;;
42518;SDS011;28147;47.520;18.920;2022-12-07T17:59:52;8.48;;;3.80;;
42518;SDS011;28147;47.520;18.920;2022-12-07T18:02:19;7.18;;;4.38;;
42518;SDS011;28147;47.520;18.920;2022-12-07T18:04:44;8.57;;;4.20;;